createdAt,value
2022-10-20T00:01:10.834Z,100748.34
2022-10-20T00:03:38.464Z,100749.16
2022-10-20T00:06:08.134Z,100746.53
2022-10-20T00:08:35.663Z,100751.66
2022-10-20T00:11:03.365Z,100749.84
2022-10-20T00:13:31.112Z,100746.44
2022-10-20T00:15:59.114Z,100751.72
2022-10-20T00:18:27.019Z,100753.31
2022-10-20T00:20:55.105Z,100754.06
2022-10-20T00:23:22.762Z,100756.63
2022-10-20T00:26:01.348Z,100761.97
2022-10-20T00:28:28.701Z,100768.06
2022-10-20T00:30:56.863Z,100773.16
2022-10-20T00:33:25.109Z,100770.47
2022-10-20T00:35:54.788Z,100772.19
2022-10-20T00:38:22.430Z,100778.31
2022-10-20T00:40:49.731Z,100770.31
2022-10-20T00:43:18.106Z,100771.94
2022-10-20T00:45:51.334Z,100766.75
2022-10-20T00:48:26.040Z,100771.91
2022-10-20T00:50:55.233Z,100777.94
2022-10-20T00:53:24.740Z,100783.97
2022-10-20T00:55:54.604Z,100785.00
2022-10-20T00:58:22.341Z,100781.53
2022-10-20T01:00:52.176Z,100784.00
2022-10-20T01:03:47.311Z,100787.53
2022-10-20T01:08:51.382Z,100780.34
2022-10-20T01:11:33.960Z,100777.69
2022-10-20T01:14:26.027Z,100775.81
2022-10-20T01:17:08.726Z,100778.56
2022-10-20T01:19:38.712Z,100775.91
2022-10-20T01:22:20.630Z,100778.34
2022-10-20T01:25:26.775Z,100774.97
2022-10-20T01:28:02.468Z,100771.38
2022-10-20T01:30:30.490Z,100771.25
2022-10-20T01:33:09.908Z,100780.00
2022-10-20T01:35:43.784Z,100782.50
2022-10-20T01:38:31.895Z,100786.88
2022-10-20T01:41:03.130Z,100783.97
2022-10-20T01:43:34.343Z,100784.84
2022-10-20T01:46:02.280Z,100786.69
2022-10-20T01:48:33.417Z,100792.59
2022-10-20T01:51:02.407Z,100786.50
2022-10-20T01:53:29.686Z,100789.97
2022-10-20T01:55:59.220Z,100784.59
2022-10-20T01:58:35.865Z,100787.47
2022-10-20T02:01:19.988Z,100783.66
2022-10-20T02:03:56.230Z,100791.72
2022-10-20T02:06:43.384Z,100794.25
2022-10-20T02:09:16.827Z,100795.84
2022-10-20T02:12:01.585Z,100788.88
2022-10-20T02:14:29.782Z,100790.56
2022-10-20T02:16:59.834Z,100786.94
2022-10-20T02:19:31.519Z,100788.56
2022-10-20T02:21:59.273Z,100792.22
2022-10-20T02:24:29.235Z,100795.78
2022-10-20T02:26:58.188Z,100794.75
2022-10-20T02:29:28.808Z,100794.81
2022-10-20T02:31:56.488Z,100799.06
2022-10-20T02:34:27.201Z,100796.31
2022-10-20T02:36:59.058Z,100803.34
2022-10-20T02:39:26.868Z,100798.84
2022-10-20T02:41:54.710Z,100798.16
2022-10-20T02:44:22.966Z,100799.87
2022-10-20T02:46:50.346Z,100803.91
2022-10-20T02:49:17.656Z,100805.06
2022-10-20T02:51:45.201Z,100808.56
2022-10-20T02:54:12.484Z,100811.91
2022-10-20T02:56:39.849Z,100810.28
2022-10-20T02:59:07.419Z,100815.34
2022-10-20T03:01:34.741Z,100817.59
2022-10-20T03:04:02.086Z,100813.37
2022-10-20T03:06:29.683Z,100815.28
2022-10-20T03:08:57.300Z,100815.09
2022-10-20T03:11:24.670Z,100813.22
2022-10-20T03:13:52.237Z,100814.88
2022-10-20T03:16:19.575Z,100819.00
2022-10-20T03:18:47.012Z,100814.16
2022-10-20T03:21:14.629Z,100820.19
2022-10-20T03:23:41.936Z,100821.53
2022-10-20T03:26:10.671Z,100827.03
2022-10-20T03:28:38.999Z,100826.22
2022-10-20T03:31:06.869Z,100825.25
2022-10-20T03:33:34.642Z,100823.56
2022-10-20T03:36:02.523Z,100830.53
2022-10-20T03:38:29.824Z,100828.72
2022-10-20T03:40:57.179Z,100826.84
2022-10-20T03:43:24.765Z,100831.19
2022-10-20T03:46:01.920Z,100828.53
2022-10-20T03:48:29.938Z,100833.37
2022-10-20T03:50:57.499Z,100835.41
2022-10-20T03:53:24.796Z,100832.75
2022-10-20T03:55:52.387Z,100841.56
2022-10-20T03:58:19.758Z,100837.75
2022-10-20T04:00:47.398Z,100834.41
2022-10-20T04:03:15.080Z,100833.41
2022-10-20T04:05:42.519Z,100837.88
2022-10-20T04:08:09.854Z,100834.34
2022-10-20T04:10:37.441Z,100841.19
2022-10-20T04:13:04.768Z,100838.59
2022-10-20T04:15:32.066Z,100840.87
2022-10-20T04:17:59.782Z,100838.34
2022-10-20T04:20:27.302Z,100831.28
2022-10-20T04:22:54.599Z,100843.47
2022-10-20T04:25:22.225Z,100835.38
2022-10-20T04:27:49.731Z,100828.31
2022-10-20T04:30:17.053Z,100831.81
2022-10-20T04:32:44.628Z,100829.28
2022-10-20T04:35:11.924Z,100829.28
2022-10-20T04:37:39.630Z,100831.72
2022-10-20T04:40:07.863Z,100838.62
2022-10-20T04:42:35.169Z,100834.94
2022-10-20T04:45:02.453Z,100823.69
2022-10-20T04:47:34.252Z,100823.69
2022-10-20T04:50:02.021Z,100828.88
2022-10-20T04:52:29.768Z,100828.59
2022-10-20T04:54:57.222Z,100829.50
2022-10-20T04:57:24.683Z,100833.78
2022-10-20T04:59:52.319Z,100838.28
2022-10-20T05:02:19.636Z,100836.38
2022-10-20T05:04:46.945Z,100835.53
2022-10-20T05:07:14.510Z,100844.88
2022-10-20T05:09:41.817Z,100850.06
2022-10-20T05:12:09.238Z,100847.34
2022-10-20T05:14:36.825Z,100848.97
2022-10-20T05:17:06.506Z,100859.31
2022-10-20T05:19:36.835Z,100864.31
2022-10-20T05:22:04.451Z,100863.53
2022-10-20T05:24:31.751Z,100860.87
2022-10-20T05:26:59.385Z,100862.56
2022-10-20T05:29:26.684Z,100869.66
2022-10-20T05:31:53.978Z,100874.72
2022-10-20T05:34:21.525Z,100874.84
2022-10-20T05:36:48.831Z,100879.09
2022-10-20T05:39:16.123Z,100888.88
2022-10-20T05:41:43.671Z,100897.50
2022-10-20T05:44:12.252Z,100899.25
2022-10-20T05:46:42.921Z,100904.44
2022-10-20T05:49:16.672Z,100903.12
2022-10-20T05:51:45.306Z,100910.12
2022-10-20T05:54:13.408Z,100910.53
2022-10-20T05:56:41.072Z,100909.09
2022-10-20T05:59:09.055Z,100915.53
2022-10-20T06:01:49.311Z,100916.66
2022-10-20T06:04:19.876Z,100920.34
2022-10-20T06:06:48.816Z,100917.91
2022-10-20T06:09:17.155Z,100921.50
2022-10-20T06:11:44.473Z,100913.34
2022-10-20T06:14:11.904Z,100923.19
2022-10-20T06:16:39.471Z,100927.75
2022-10-20T06:19:07.274Z,100921.19
2022-10-20T06:21:35.693Z,100924.87
2022-10-20T06:24:05.201Z,100935.37
2022-10-20T06:26:34.377Z,100935.75
2022-10-20T06:29:04.745Z,100934.38
2022-10-20T06:31:35.310Z,100941.50
2022-10-20T06:34:05.577Z,100947.81
2022-10-20T06:36:38.499Z,100948.84
2022-10-20T06:39:07.350Z,100954.94
2022-10-20T06:41:35.400Z,100955.31
2022-10-20T06:44:02.912Z,100946.69
2022-10-20T06:46:32.602Z,100951.25
2022-10-20T06:49:01.372Z,100944.34
2022-10-20T06:51:28.664Z,100951.50
2022-10-20T06:53:56.028Z,100960.28
2022-10-20T06:56:25.675Z,100955.16
2022-10-20T06:58:54.476Z,100959.41
2022-10-20T07:01:30.594Z,100954.53
2022-10-20T07:04:00.525Z,100956.34
2022-10-20T07:06:30.601Z,100957.25
2022-10-20T07:08:58.652Z,100960.84
2022-10-20T07:11:28.037Z,100961.84
2022-10-20T07:13:55.885Z,100964.53
2022-10-20T07:16:25.267Z,100962.94
2022-10-20T07:18:52.876Z,100962.16
2022-10-20T07:21:22.382Z,100964.81
2022-10-20T07:23:51.186Z,100969.19
2022-10-20T07:26:21.969Z,100971.84
2022-10-20T07:28:55.592Z,100972.75
2022-10-20T07:31:25.244Z,100971.84
2022-10-20T07:34:07.196Z,100981.44
2022-10-20T07:36:42.150Z,100970.13
2022-10-20T07:39:11.293Z,100977.97
2022-10-20T07:41:39.558Z,100977.97
2022-10-20T07:44:07.346Z,100977.13
2022-10-20T07:46:35.803Z,100974.50
2022-10-20T07:49:31.435Z,100979.75
2022-10-20T07:51:51.487Z,100988.47
2022-10-20T07:54:18.953Z,100978.00
2022-10-20T07:56:46.547Z,100978.00
2022-10-20T07:59:14.542Z,100979.72
2022-10-20T08:01:41.977Z,100971.88
2022-10-20T08:04:09.579Z,100977.09
2022-10-20T08:06:39.113Z,100978.84
2022-10-20T08:09:07.524Z,100977.97
2022-10-20T08:11:35.775Z,100984.97
2022-10-20T08:14:03.366Z,100977.97
2022-10-20T08:16:30.753Z,100981.47
2022-10-20T08:19:03.963Z,100984.97
2022-10-20T08:21:31.313Z,100992.81
2022-10-20T08:23:58.899Z,100984.06
2022-10-20T08:26:26.469Z,100995.41
2022-10-20T08:28:55.019Z,100998.00
2022-10-20T08:31:23.322Z,100991.88
2022-10-20T08:33:52.987Z,100992.78
2022-10-20T08:36:21.232Z,100993.63
2022-10-20T08:38:48.951Z,100997.97
2022-10-20T08:41:25.730Z,100989.19
2022-10-20T08:43:55.459Z,100991.81
2022-10-20T08:46:31.409Z,100993.56
2022-10-20T08:48:59.325Z,100992.72
2022-10-20T08:51:38.230Z,100998.81
2022-10-20T08:54:11.935Z,100995.25
2022-10-20T08:56:39.265Z,100997.88
2022-10-20T08:59:29.735Z,100994.34
2022-10-20T09:01:57.764Z,100995.19
2022-10-20T09:04:48.072Z,100989.97
2022-10-20T09:07:31.878Z,100985.59
2022-10-20T09:10:33.511Z,100990.84
2022-10-20T09:13:01.543Z,100990.78
2022-10-20T09:15:29.356Z,100994.34
2022-10-20T09:18:01.817Z,100989.00
2022-10-20T09:20:37.336Z,100984.75
2022-10-20T09:23:16.368Z,100982.13
2022-10-20T09:25:51.452Z,100987.38
2022-10-20T09:28:26.888Z,100985.63
2022-10-20T09:30:55.270Z,100996.16
2022-10-20T09:33:28.864Z,100990.94
2022-10-20T09:36:17.079Z,101002.28
2022-10-20T09:38:47.983Z,100997.81
2022-10-20T09:41:27.921Z,100989.94
2022-10-20T09:43:58.944Z,100996.97
2022-10-20T09:46:32.528Z,100999.44
2022-10-20T09:49:00.072Z,100995.12
2022-10-20T09:51:28.750Z,100995.03
2022-10-20T09:54:06.778Z,100997.62
2022-10-20T09:56:36.848Z,100998.53
2022-10-20T09:59:08.141Z,100987.94
2022-10-20T10:01:52.496Z,100994.13
2022-10-20T10:04:36.535Z,100990.53
2022-10-20T10:07:05.492Z,101000.16
2022-10-20T10:09:36.001Z,100992.13
2022-10-20T10:12:23.479Z,100994.66
2022-10-20T10:15:00.909Z,100989.47
2022-10-20T10:17:34.967Z,100991.12
2022-10-20T10:20:22.903Z,100987.84
2022-10-20T10:22:50.249Z,100974.62
2022-10-20T10:25:28.126Z,100970.94
2022-10-20T10:28:06.915Z,100968.47
2022-10-20T10:30:37.249Z,100968.31
2022-10-20T10:33:27.197Z,100963.16
2022-10-20T10:35:55.105Z,100964.00
2022-10-20T10:38:22.450Z,100961.38
2022-10-20T10:41:26.982Z,100956.22
2022-10-20T10:44:00.327Z,100956.91
2022-10-20T10:46:40.846Z,100951.78
2022-10-20T10:49:32.978Z,100943.72
2022-10-20T10:52:35.666Z,100933.06
2022-10-20T10:55:47.138Z,100934.81
2022-10-20T10:58:20.658Z,100932.91
2022-10-20T11:00:54.304Z,100931.28
2022-10-20T11:04:06.595Z,100920.75
2022-10-20T11:06:44.580Z,100917.19
2022-10-20T11:09:16.348Z,100915.25
2022-10-20T11:11:54.040Z,100913.47
2022-10-20T11:14:27.379Z,100912.69
2022-10-20T11:17:29.023Z,100906.44
2022-10-20T11:20:07.476Z,100901.06
2022-10-20T11:23:06.462Z,100894.91
2022-10-20T11:25:38.985Z,100893.28
2022-10-20T11:28:21.785Z,100890.63
2022-10-20T11:30:49.444Z,100891.66
2022-10-20T11:33:19.352Z,100890.91
2022-10-20T11:36:09.348Z,100880.97
2022-10-20T11:38:54.929Z,100874.81
2022-10-20T11:41:28.266Z,100870.44
2022-10-20T11:44:02.668Z,100867.72
2022-10-20T11:46:47.912Z,100881.56
2022-10-20T11:49:15.599Z,100866.28
2022-10-20T11:52:17.835Z,100874.84
2022-10-20T11:55:15.344Z,100858.88
2022-10-20T11:58:22.572Z,100859.00
2022-10-20T12:00:55.095Z,100862.28
2022-10-20T12:03:54.568Z,100861.34
2022-10-20T12:06:24.986Z,100863.13
2022-10-20T12:09:17.594Z,100859.81
2022-10-20T12:12:00.239Z,100857.06
2022-10-20T12:14:36.338Z,100852.75
2022-10-20T12:17:13.926Z,100847.41
2022-10-20T12:19:41.512Z,100846.59
2022-10-20T12:22:14.844Z,100852.12
2022-10-20T12:24:54.750Z,100849.50
2022-10-20T12:27:29.479Z,100845.75
2022-10-20T12:30:02.950Z,100833.50
2022-10-20T12:32:57.419Z,100833.50
2022-10-20T12:35:24.857Z,100840.87
2022-10-20T12:38:15.976Z,100833.09
2022-10-20T12:40:55.031Z,100830.13
2022-10-20T12:43:24.261Z,100824.88
2022-10-20T12:45:52.162Z,100820.41
2022-10-20T12:48:22.727Z,100814.44
2022-10-20T12:50:51.128Z,100806.78
2022-10-20T12:53:27.205Z,100805.31
2022-10-20T12:55:58.141Z,100808.38
2022-10-20T12:58:31.422Z,100808.38
2022-10-20T13:00:58.663Z,100799.72
2022-10-20T13:03:32.179Z,100797.06
2022-10-20T13:05:59.965Z,100796.87
2022-10-20T13:08:29.970Z,100790.00
2022-10-20T13:11:35.839Z,100790.47
2022-10-20T13:14:12.482Z,100791.97
2022-10-20T13:16:51.508Z,100788.38
2022-10-20T13:19:24.836Z,100794.44
2022-10-20T13:21:52.386Z,100793.66
2022-10-20T13:24:31.456Z,100797.13
2022-10-20T13:27:02.826Z,100801.41
2022-10-20T13:29:36.811Z,100793.56
2022-10-20T13:34:52.749Z,100787.47
2022-10-20T13:37:37.919Z,100784.69
2022-10-20T13:40:46.965Z,100784.91
2022-10-20T13:43:43.889Z,100785.63
2022-10-20T13:46:31.650Z,100770.94
2022-10-20T13:49:26.446Z,100784.84
2022-10-20T13:51:58.888Z,100779.69
2022-10-20T13:54:29.241Z,100776.19
2022-10-20T13:56:57.271Z,100772.56
2022-10-20T13:59:29.174Z,100769.88
2022-10-20T14:02:03.692Z,100776.78
2022-10-20T14:04:35.691Z,100775.25
2022-10-20T14:07:04.893Z,100773.63
2022-10-20T14:09:32.525Z,100767.66
2022-10-20T14:12:06.875Z,100766.78
2022-10-20T14:14:34.693Z,100761.47
2022-10-20T14:17:07.090Z,100765.81
2022-10-20T14:19:35.467Z,100759.94
2022-10-20T14:22:15.329Z,100758.00
2022-10-20T14:24:45.046Z,100757.91
2022-10-20T14:27:24.555Z,100760.50
2022-10-20T14:29:52.920Z,100758.72
2022-10-20T14:32:26.787Z,100768.50
2022-10-20T14:35:03.347Z,100762.25
2022-10-20T14:37:36.225Z,100756.22
2022-10-20T14:40:07.212Z,100762.53
2022-10-20T14:42:34.836Z,100760.72
2022-10-20T14:45:03.482Z,100759.03
2022-10-20T14:47:39.142Z,100753.84
2022-10-20T14:50:07.142Z,100753.88
2022-10-20T14:52:38.691Z,100752.69
2022-10-20T14:55:27.144Z,100748.25
2022-10-20T14:57:55.916Z,100747.44
2022-10-20T15:00:24.735Z,100744.06
2022-10-20T15:02:56.864Z,100740.72
2022-10-20T15:05:37.274Z,100750.31
2022-10-20T15:08:21.277Z,100739.00
2022-10-20T15:10:48.934Z,100742.59
2022-10-20T15:13:34.480Z,100738.25
2022-10-20T15:16:02.876Z,100737.22
2022-10-20T15:18:30.515Z,100741.81
2022-10-20T15:20:57.848Z,100738.31
2022-10-20T15:23:27.518Z,100734.00
2022-10-20T15:25:57.600Z,100733.06
2022-10-20T15:28:30.312Z,100731.22
2022-10-20T15:30:59.208Z,100725.22
2022-10-20T15:33:26.859Z,100732.28
2022-10-20T15:35:54.704Z,100725.97
2022-10-20T15:38:22.039Z,100728.56
2022-10-20T15:40:49.650Z,100728.56
2022-10-20T15:43:18.566Z,100732.09
2022-10-20T15:46:03.884Z,100722.56
2022-10-20T15:48:31.508Z,100722.78
2022-10-20T15:51:01.443Z,100729.81
2022-10-20T15:53:28.738Z,100728.13
2022-10-20T15:55:56.382Z,100729.13
2022-10-20T15:58:23.708Z,100724.84
2022-10-20T16:00:51.091Z,100727.56
2022-10-20T16:03:19.048Z,100729.44
2022-10-20T16:05:46.821Z,100729.50
2022-10-20T16:10:43.600Z,100731.44
2022-10-20T16:13:11.485Z,100732.41
2022-10-20T16:15:38.859Z,100733.34
2022-10-20T16:18:09.601Z,100734.25
2022-10-20T16:20:37.458Z,100734.25
2022-10-20T16:23:04.821Z,100739.59
2022-10-20T16:25:32.366Z,100736.13
2022-10-20T16:27:59.896Z,100734.41
2022-10-20T16:30:27.203Z,100734.47
2022-10-20T16:33:21.023Z,100734.44
2022-10-20T16:35:50.549Z,100747.53
2022-10-20T16:38:18.102Z,100737.09
2022-10-20T16:40:56.679Z,100737.97
2022-10-20T16:43:24.266Z,100742.31
2022-10-20T16:45:51.629Z,100741.44
2022-10-20T16:48:19.020Z,100751.87
2022-10-20T16:50:46.657Z,100748.41
2022-10-20T16:53:13.981Z,100746.66
2022-10-20T16:55:51.148Z,100745.78
2022-10-20T16:58:18.800Z,100740.50
2022-10-20T17:00:46.308Z,100746.59
2022-10-20T17:03:16.955Z,100743.97
2022-10-20T17:05:54.064Z,100746.56
2022-10-20T17:08:21.379Z,100743.94
2022-10-20T17:10:48.978Z,100748.28
2022-10-20T17:13:16.272Z,100743.00
2022-10-20T17:15:43.611Z,100750.84
2022-10-20T17:18:11.180Z,100748.19
2022-10-20T17:20:38.741Z,100743.81
2022-10-20T17:23:06.065Z,100742.03
2022-10-20T17:25:33.638Z,100741.19
2022-10-20T17:28:01.403Z,100748.06
2022-10-20T17:30:48.519Z,100748.87
2022-10-20T17:33:16.119Z,100743.66
2022-10-20T17:35:47.471Z,100745.31
2022-10-20T17:38:14.880Z,100747.09
2022-10-20T17:40:42.455Z,100747.84
2022-10-20T17:43:09.825Z,100750.44
2022-10-20T17:45:38.308Z,100759.16
2022-10-20T17:48:06.231Z,100759.06
2022-10-20T17:50:33.636Z,100753.81
2022-10-20T17:53:03.765Z,100759.06
2022-10-20T17:55:33.268Z,100756.31
2022-10-20T17:58:05.563Z,100759.88
2022-10-20T18:00:54.934Z,100758.09
2022-10-20T18:03:21.085Z,100757.25
2022-10-20T18:05:48.387Z,100752.91
2022-10-20T18:08:15.737Z,100763.38
2022-10-20T18:10:43.957Z,100755.47
2022-10-20T18:13:11.632Z,100761.34
2022-10-20T18:15:43.020Z,100763.16
2022-10-20T18:18:10.615Z,100755.22
2022-10-20T18:20:37.936Z,100762.19
2022-10-20T18:23:05.264Z,100752.63
2022-10-20T18:25:35.331Z,100745.56
2022-10-20T18:28:02.939Z,100754.16
2022-10-20T18:30:30.352Z,100763.53
2022-10-20T18:32:57.915Z,100754.94
2022-10-20T18:35:25.272Z,100754.03
2022-10-20T18:37:57.399Z,100758.19
2022-10-20T18:40:24.849Z,100759.13
2022-10-20T18:42:52.102Z,100754.72
2022-10-20T18:45:21.397Z,100760.78
2022-10-20T18:47:51.383Z,100756.44
2022-10-20T18:50:18.716Z,100752.84
2022-10-20T18:52:46.181Z,100761.47
2022-10-20T18:55:13.769Z,100758.09
2022-10-20T18:57:41.336Z,100755.37
2022-10-20T19:00:09.453Z,100754.31
2022-10-20T19:02:37.241Z,100753.50
2022-10-20T19:05:05.254Z,100758.72
2022-10-20T19:07:33.425Z,100764.81
2022-10-20T19:10:01.042Z,100752.56
2022-10-20T19:12:28.408Z,100759.50
2022-10-20T19:14:55.744Z,100759.47
2022-10-20T19:17:23.367Z,100753.19
2022-10-20T19:19:51.051Z,100756.63
2022-10-20T19:22:18.451Z,100761.88
2022-10-20T19:24:46.217Z,100767.94
2022-10-20T19:27:28.798Z,100753.25
2022-10-20T19:29:56.463Z,100753.22
2022-10-20T19:32:23.772Z,100754.97
2022-10-20T19:34:51.176Z,100758.28
2022-10-20T19:37:18.737Z,100749.47
2022-10-20T19:39:46.287Z,100757.34
2022-10-20T19:42:13.792Z,100759.84
2022-10-20T19:44:42.559Z,100758.84
2022-10-20T19:47:09.859Z,100758.78
2022-10-20T19:49:37.749Z,100755.22
2022-10-20T19:52:06.330Z,100759.53
2022-10-20T19:54:33.966Z,100766.47
2022-10-20T19:57:01.528Z,100763.84
2022-10-20T19:59:29.117Z,100756.75
2022-10-20T20:01:56.505Z,100761.97
2022-10-20T20:04:24.165Z,100767.03
2022-10-20T20:06:51.590Z,100757.44
2022-10-20T20:09:18.908Z,100763.47
2022-10-20T20:11:46.563Z,100760.03
2022-10-20T20:14:16.353Z,100753.94
2022-10-20T20:16:45.891Z,100761.81
2022-10-20T20:19:14.933Z,100761.69
2022-10-20T20:21:42.401Z,100766.75
2022-10-20T20:24:11.248Z,100756.28
2022-10-20T20:26:38.921Z,100765.63
2022-10-20T20:29:06.240Z,100770.09
2022-10-20T20:31:34.114Z,100769.94
2022-10-20T20:34:01.759Z,100768.13
2022-10-20T20:36:29.275Z,100774.22
2022-10-20T20:38:58.278Z,100767.88
2022-10-20T20:41:27.904Z,100760.41
2022-10-20T20:43:55.393Z,100773.19
2022-10-20T20:46:24.126Z,100762.00
2022-10-20T20:48:51.681Z,100768.72
2022-10-20T20:51:19.182Z,100762.56
2022-10-20T20:53:46.584Z,100769.53
2022-10-20T20:56:16.829Z,100771.41
2022-10-20T20:58:51.942Z,100771.28
2022-10-20T21:01:24.575Z,100766.66
2022-10-20T21:03:53.348Z,100773.38
2022-10-20T21:06:25.644Z,100772.00
2022-10-20T21:09:01.267Z,100765.03
2022-10-20T21:11:28.687Z,100764.88
2022-10-20T21:13:57.448Z,100767.53
2022-10-20T21:16:27.695Z,100762.94
2022-10-20T21:18:57.464Z,100761.16
2022-10-20T21:21:29.991Z,100761.81
2022-10-20T21:23:58.489Z,100763.66
2022-10-20T21:26:26.975Z,100765.44
2022-10-20T21:28:54.803Z,100761.81
2022-10-20T21:31:24.958Z,100760.16
2022-10-20T21:33:54.479Z,100771.53
2022-10-20T21:36:22.471Z,100762.75
2022-10-20T21:38:49.820Z,100761.72
2022-10-20T21:41:22.436Z,100765.13
2022-10-20T21:43:53.012Z,100764.22
2022-10-20T21:46:23.668Z,100763.34
2022-10-20T21:48:52.819Z,100755.47
2022-10-20T21:51:25.887Z,100758.94
2022-10-20T21:54:02.044Z,100752.72
2022-10-20T21:56:30.225Z,100758.87
2022-10-20T21:58:57.807Z,100759.59
2022-10-20T22:01:25.652Z,100753.56
2022-10-20T22:03:53.920Z,100756.91
2022-10-20T22:06:23.578Z,100754.06
2022-10-20T22:08:55.889Z,100754.12
2022-10-20T22:11:28.852Z,100753.56
2022-10-20T22:13:56.357Z,100756.97
2022-10-20T22:16:26.272Z,100756.16
2022-10-20T22:18:59.968Z,100757.78
2022-10-20T22:21:28.507Z,100754.28
2022-10-20T22:23:57.242Z,100756.91
2022-10-20T22:26:29.131Z,100750.09
2022-10-20T22:28:57.516Z,100754.22
2022-10-20T22:31:25.395Z,100754.41
2022-10-20T22:33:54.121Z,100759.59
2022-10-20T22:36:22.160Z,100755.03
2022-10-20T22:38:49.539Z,100751.72
2022-10-20T22:41:17.050Z,100752.69
2022-10-20T22:43:44.598Z,100758.53
2022-10-20T22:46:11.963Z,100762.16
2022-10-20T22:48:39.319Z,100761.38
2022-10-20T22:51:08.286Z,100759.50
2022-10-20T22:53:36.817Z,100765.56
2022-10-20T22:56:08.253Z,100766.47
2022-10-20T22:58:36.453Z,100763.94
2022-10-20T23:01:12.695Z,100753.59
2022-10-20T23:03:40.492Z,100755.19
2022-10-20T23:06:12.999Z,100756.16
2022-10-20T23:08:47.327Z,100745.06
2022-10-20T23:11:14.772Z,100743.13
2022-10-20T23:13:42.823Z,100744.72
2022-10-20T23:16:10.344Z,100729.41
2022-10-20T23:18:38.290Z,100729.25
2022-10-20T23:21:06.385Z,100732.81
2022-10-20T23:23:37.413Z,100728.41
2022-10-20T23:26:05.968Z,100740.75
2022-10-20T23:28:34.608Z,100742.31
2022-10-20T23:31:10.012Z,100747.66
2022-10-20T23:33:38.662Z,100747.66
2022-10-20T23:36:06.337Z,100737.06
2022-10-20T23:38:33.871Z,100738.03
2022-10-20T23:41:01.473Z,100739.78
2022-10-20T23:43:28.804Z,100738.00
2022-10-20T23:45:56.135Z,100738.03
2022-10-20T23:48:23.767Z,100738.16
2022-10-20T23:50:51.050Z,100732.09
2022-10-20T23:53:18.319Z,100726.91
2022-10-20T23:55:46.788Z,100732.03
2022-10-20T23:58:14.078Z,100733.62
